createdAt,value
2016-02-23T00:00:03.482Z,986.8
2016-02-23T00:01:03.485Z,986.79
2016-02-23T00:02:03.472Z,986.77
2016-02-23T00:03:03.475Z,986.81
2016-02-23T00:04:03.477Z,986.78
2016-02-23T00:05:03.472Z,986.76
2016-02-23T00:06:03.459Z,986.74
2016-02-23T00:07:03.462Z,986.75
2016-02-23T00:08:03.449Z,986.78
2016-02-23T00:09:03.453Z,986.77
2016-02-23T00:10:03.455Z,986.8
2016-02-23T00:11:03.441Z,986.8
2016-02-23T00:12:03.430Z,986.78
2016-02-23T00:13:03.432Z,986.86
2016-02-23T00:14:03.419Z,986.8
2016-02-23T00:15:03.421Z,986.81
2016-02-23T00:16:03.424Z,986.83
2016-02-23T00:17:03.411Z,986.85
2016-02-23T00:18:03.413Z,986.83
2016-02-23T00:19:03.401Z,986.78
2016-02-23T00:20:03.388Z,986.82
2016-02-23T00:21:03.391Z,986.81
2016-02-23T00:22:03.389Z,986.82
2016-02-23T00:23:03.365Z,986.8
2016-02-23T00:24:03.356Z,986.82
2016-02-23T00:25:03.332Z,986.84
2016-02-23T00:26:03.324Z,986.84
2016-02-23T00:27:03.302Z,986.87
2016-02-23T00:28:03.300Z,986.86
2016-02-23T00:29:03.299Z,986.85
2016-02-23T00:30:03.283Z,986.86
2016-02-23T00:31:03.282Z,986.88
2016-02-23T00:32:03.265Z,986.84
2016-02-23T00:33:03.266Z,986.88
2016-02-23T00:34:03.252Z,986.92
2016-02-23T00:35:03.254Z,986.91
2016-02-23T00:36:03.240Z,986.88
2016-02-23T00:37:03.241Z,986.87
2016-02-23T00:38:03.227Z,986.92
2016-02-23T00:39:03.229Z,986.93
2016-02-23T00:40:03.216Z,986.94
2016-02-23T00:41:03.217Z,986.92
2016-02-23T00:42:03.211Z,986.96
2016-02-23T00:43:03.214Z,986.9
2016-02-23T00:44:03.201Z,986.93
2016-02-23T00:45:03.203Z,986.92
2016-02-23T00:46:03.191Z,986.94
2016-02-23T00:47:03.193Z,986.96
2016-02-23T00:48:03.180Z,986.97
2016-02-23T00:49:03.184Z,986.99
2016-02-23T00:50:03.170Z,986.91
2016-02-23T00:51:03.172Z,986.9
2016-02-23T00:52:03.160Z,986.93
2016-02-23T00:53:03.163Z,986.96
2016-02-23T00:54:03.150Z,986.96
2016-02-23T00:55:03.153Z,986.95
2016-02-23T00:56:03.155Z,986.96
2016-02-23T00:57:03.142Z,986.96
2016-02-23T00:58:03.130Z,986.98
2016-02-23T00:59:03.132Z,986.94
2016-02-23T01:00:03.135Z,987.05
2016-02-23T01:01:03.122Z,987.07
2016-02-23T01:02:03.124Z,987.12
2016-02-23T01:03:03.111Z,987.08
2016-02-23T01:04:03.114Z,987.09
2016-02-23T01:05:03.101Z,987.08
2016-02-23T01:06:03.104Z,987.08
2016-02-23T01:07:03.091Z,987.05
2016-02-23T01:08:03.093Z,987.08
2016-02-23T01:09:03.096Z,987.07
2016-02-23T01:10:03.084Z,987.12
2016-02-23T01:11:03.070Z,987.08
2016-02-23T01:12:03.074Z,987.11
2016-02-23T01:13:03.060Z,987.1
2016-02-23T01:14:03.062Z,987.06
2016-02-23T01:15:03.065Z,987.05
2016-02-23T01:16:03.053Z,987.09
2016-02-23T01:17:03.056Z,987.11
2016-02-23T01:18:03.042Z,987.15
2016-02-23T01:19:03.045Z,987.15
2016-02-23T01:20:03.032Z,987.13
2016-02-23T01:21:03.035Z,987.15
2016-02-23T01:22:03.022Z,987.17
2016-02-23T01:23:03.025Z,987.15
2016-02-23T01:24:03.011Z,987.14
2016-02-23T01:25:03.015Z,987.19
2016-02-23T01:26:03.002Z,987.16
2016-02-23T01:27:03.004Z,987.17
2016-02-23T01:28:03.007Z,987.18
2016-02-23T01:29:02.994Z,987.18
2016-02-23T01:30:02.997Z,987.15
2016-02-23T01:31:02.999Z,987.15
2016-02-23T01:32:03.018Z,987.11
2016-02-23T01:33:02.989Z,987.16
2016-02-23T01:34:02.977Z,987.16
2016-02-23T01:35:02.963Z,987.19
2016-02-23T01:36:02.965Z,987.2
2016-02-23T01:37:02.953Z,987.22
2016-02-23T01:38:02.955Z,987.24
2016-02-23T01:39:02.958Z,987.2
2016-02-23T01:40:02.961Z,987.22
2016-02-23T01:41:02.932Z,987.14
2016-02-23T01:42:02.935Z,987.11
2016-02-23T01:43:02.938Z,987.13
2016-02-23T01:44:02.925Z,987.11
2016-02-23T01:45:02.912Z,987.1
2016-02-23T01:46:02.915Z,987.11
2016-02-23T01:47:02.948Z,987.13
2016-02-23T01:48:02.904Z,987.17
2016-02-23T01:49:02.907Z,987.13
2016-02-23T01:50:02.894Z,987.11
2016-02-23T01:51:02.897Z,987.16
2016-02-23T01:52:02.884Z,987.15
2016-02-23T01:53:02.886Z,987.11
2016-02-23T01:54:02.873Z,987.08
2016-02-23T01:55:02.876Z,987.11
2016-02-23T01:56:02.878Z,987.08
2016-02-23T01:57:02.867Z,987.09
2016-02-23T01:58:02.869Z,987.1
2016-02-23T01:59:02.855Z,987.09
2016-02-23T02:00:02.844Z,987.05
2016-02-23T02:01:02.846Z,987.07
2016-02-23T02:02:02.848Z,987.05
2016-02-23T02:03:02.835Z,987.03
2016-02-23T02:04:02.838Z,986.98
2016-02-23T02:05:02.825Z,987.03
2016-02-23T02:06:02.828Z,987.02
2016-02-23T02:07:02.815Z,986.98
2016-02-23T02:08:02.818Z,987
2016-02-23T02:09:02.805Z,986.99
2016-02-23T02:10:02.807Z,986.96
2016-02-23T02:11:02.793Z,986.96
2016-02-23T02:12:02.797Z,986.97
2016-02-23T02:13:02.784Z,986.95
2016-02-23T02:14:02.787Z,986.96
2016-02-23T02:15:02.790Z,986.96
2016-02-23T02:16:02.776Z,986.92
2016-02-23T02:17:02.779Z,986.93
2016-02-23T02:18:02.767Z,986.93
2016-02-23T02:19:02.769Z,986.93
2016-02-23T02:20:02.756Z,986.9
2016-02-23T02:21:02.759Z,986.9
2016-02-23T02:22:02.746Z,986.9
2016-02-23T02:23:02.748Z,986.91
2016-02-23T02:24:02.751Z,986.89
2016-02-23T02:25:02.739Z,986.86
2016-02-23T02:26:02.741Z,986.9
2016-02-23T02:27:02.728Z,986.85
2016-02-23T02:28:02.715Z,986.84
2016-02-23T02:29:02.717Z,986.87
2016-02-23T02:30:02.710Z,986.85
2016-02-23T02:31:02.713Z,986.86
2016-02-23T02:32:02.699Z,986.87
2016-02-23T02:33:02.702Z,986.87
2016-02-23T02:34:02.689Z,986.87
2016-02-23T02:35:02.691Z,986.87
2016-02-23T02:36:02.694Z,986.91
2016-02-23T02:37:02.682Z,986.88
2016-02-23T02:38:02.684Z,986.93
2016-02-23T02:39:02.672Z,986.88
2016-02-23T02:40:02.674Z,986.87
2016-02-23T02:41:02.661Z,986.84
2016-02-23T02:42:02.665Z,986.83
2016-02-23T02:43:02.651Z,986.93
2016-02-23T02:44:02.653Z,986.88
2016-02-23T02:45:02.640Z,986.91
2016-02-23T02:46:02.659Z,986.95
2016-02-23T02:47:02.630Z,986.86
2016-02-23T02:48:02.634Z,986.91
2016-02-23T02:49:02.636Z,986.88
2016-02-23T02:50:02.622Z,986.86
2016-02-23T02:51:02.626Z,986.93
2016-02-23T02:52:02.612Z,986.91
2016-02-23T02:53:02.614Z,986.89
2016-02-23T02:54:02.603Z,986.93
2016-02-23T02:55:02.605Z,986.99
2016-02-23T02:56:02.608Z,986.95
2016-02-23T02:57:02.595Z,986.89
2016-02-23T02:58:02.582Z,986.92
2016-02-23T02:59:02.585Z,986.98
2016-02-23T03:00:02.588Z,986.93
2016-02-23T03:01:02.574Z,986.96
2016-02-23T03:02:02.577Z,986.95
2016-02-23T03:03:02.564Z,987
2016-02-23T03:04:02.567Z,987.03
2016-02-23T03:05:02.554Z,987.03
2016-02-23T03:06:02.557Z,987.03
2016-02-23T03:07:02.544Z,986.99
2016-02-23T03:08:02.546Z,987.01
2016-02-23T03:09:02.533Z,987.03
2016-02-23T03:10:02.535Z,986.99
2016-02-23T03:11:02.538Z,987.02
2016-02-23T03:12:02.525Z,987.03
2016-02-23T03:13:02.529Z,987.01
2016-02-23T03:14:02.531Z,986.98
2016-02-23T03:15:02.518Z,987.02
2016-02-23T03:16:02.506Z,986.98
2016-02-23T03:17:02.508Z,987.01
2016-02-23T03:18:02.495Z,987.02
2016-02-23T03:19:02.498Z,987.01
2016-02-23T03:20:02.500Z,987.04
2016-02-23T03:21:02.487Z,987.02
2016-02-23T03:22:02.490Z,987.07
2016-02-23T03:23:02.477Z,987.06
2016-02-23T03:24:02.481Z,987.03
2016-02-23T03:25:02.467Z,987.05
2016-02-23T03:26:02.469Z,987.03
2016-02-23T03:27:02.457Z,987.04
2016-02-23T03:28:02.459Z,987.06
2016-02-23T03:29:02.447Z,987.06
2016-02-23T03:30:02.449Z,987.05
2016-02-23T03:31:02.452Z,987.1
2016-02-23T03:32:02.438Z,987.09
2016-02-23T03:33:02.442Z,987.1
2016-02-23T03:34:02.429Z,987.1
2016-02-23T03:35:02.431Z,987.12
2016-02-23T03:36:02.419Z,987.11
2016-02-23T03:37:02.421Z,987.14
2016-02-23T03:38:02.408Z,987.13
2016-02-23T03:39:02.410Z,987.1
2016-02-23T03:40:02.398Z,987.12
2016-02-23T03:41:02.401Z,987.12
2016-02-23T03:42:02.388Z,987.13
2016-02-23T03:43:02.390Z,987.12
2016-02-23T03:44:02.377Z,987.16
2016-02-23T03:45:02.379Z,987.18
2016-02-23T03:46:02.383Z,987.18
2016-02-23T03:47:02.385Z,987.16
2016-02-23T03:48:02.372Z,987.18
2016-02-23T03:49:02.376Z,987.18
2016-02-23T03:50:02.362Z,987.19
2016-02-23T03:51:02.350Z,987.16
2016-02-23T03:52:02.368Z,987.16
2016-02-23T03:53:02.355Z,987.23
2016-02-23T03:54:02.342Z,987.18
2016-02-23T03:55:02.329Z,987.21
2016-02-23T03:56:02.331Z,987.24
2016-02-23T03:57:02.318Z,987.22
2016-02-23T03:58:02.322Z,987.23
2016-02-23T03:59:02.324Z,987.23
2016-02-23T04:00:02.311Z,987.19
2016-02-23T04:01:02.314Z,987.21
2016-02-23T04:02:02.300Z,987.21
2016-02-23T04:03:02.303Z,987.26
2016-02-23T04:04:02.291Z,987.23
2016-02-23T04:05:02.293Z,987.23
2016-02-23T04:06:02.280Z,987.2
2016-02-23T04:07:02.283Z,987.22
2016-02-23T04:08:02.270Z,987.21
2016-02-23T04:09:02.273Z,987.25
2016-02-23T04:10:02.260Z,987.25
2016-02-23T04:11:02.263Z,987.29
2016-02-23T04:12:02.249Z,987.26
2016-02-23T04:13:02.252Z,987.27
2016-02-23T04:14:02.255Z,987.26
2016-02-23T04:15:02.242Z,987.27
2016-02-23T04:16:02.245Z,987.26
2016-02-23T04:17:02.232Z,987.26
2016-02-23T04:18:02.218Z,987.27
2016-02-23T04:19:02.221Z,987.24
2016-02-23T04:20:02.224Z,987.26
2016-02-23T04:21:02.211Z,987.23
2016-02-23T04:22:02.214Z,987.2
2016-02-23T04:23:02.201Z,987.24
2016-02-23T04:24:02.203Z,987.27
2016-02-23T04:25:02.191Z,987.24
2016-02-23T04:26:02.194Z,987.3
2016-02-23T04:27:02.180Z,987.33
2016-02-23T04:28:02.184Z,987.32
2016-02-23T04:29:02.170Z,987.34
2016-02-23T04:30:02.172Z,987.31
2016-02-23T04:31:02.176Z,987.34
2016-02-23T04:32:02.163Z,987.37
2016-02-23T04:33:02.166Z,987.32
2016-02-23T04:34:02.153Z,987.36
2016-02-23T04:35:02.155Z,987.34
2016-02-23T04:36:02.174Z,987.35
2016-02-23T04:37:02.145Z,987.31
2016-02-23T04:38:02.132Z,987.33
2016-02-23T04:39:02.134Z,987.35
2016-02-23T04:40:02.121Z,987.37
2016-02-23T04:41:02.124Z,987.36
2016-02-23T04:42:02.127Z,987.36
2016-02-23T04:43:02.114Z,987.35
2016-02-23T04:44:02.117Z,987.32
2016-02-23T04:45:02.104Z,987.32
2016-02-23T04:46:02.107Z,987.35
2016-02-23T04:47:02.110Z,987.32
2016-02-23T04:48:02.096Z,987.36
2016-02-23T04:49:02.098Z,987.38
2016-02-23T04:50:02.087Z,987.39
2016-02-23T04:51:02.073Z,987.41
2016-02-23T04:52:02.091Z,987.41
2016-02-23T04:53:02.079Z,987.39
2016-02-23T04:54:02.065Z,987.4
2016-02-23T04:55:02.068Z,987.42
2016-02-23T04:56:02.071Z,987.44
2016-02-23T04:57:02.058Z,987.42
2016-02-23T04:58:02.045Z,987.43
2016-02-23T04:59:02.048Z,987.42
2016-02-23T05:00:02.035Z,987.37
2016-02-23T05:01:02.038Z,987.39
2016-02-23T05:02:02.040Z,987.35
2016-02-23T05:03:02.028Z,987.4
2016-02-23T05:04:02.030Z,987.36
2016-02-23T05:05:02.033Z,987.29
2016-02-23T05:06:02.019Z,987.32
2016-02-23T05:07:02.007Z,987.28
2016-02-23T05:08:02.010Z,987.28
2016-02-23T05:09:01.997Z,987.28
2016-02-23T05:10:01.999Z,987.26
2016-02-23T05:11:02.001Z,987.24
2016-02-23T05:12:01.989Z,987.22
2016-02-23T05:13:01.991Z,987.2
2016-02-23T05:14:01.979Z,987.2
2016-02-23T05:15:01.982Z,987.17
2016-02-23T05:16:01.968Z,987.15
2016-02-23T05:17:01.971Z,987.17
2016-02-23T05:18:01.959Z,987.19
2016-02-23T05:19:01.961Z,987.18
2016-02-23T05:20:01.948Z,987.21
2016-02-23T05:21:01.951Z,987.12
2016-02-23T05:22:01.953Z,987.14
2016-02-23T05:23:01.940Z,987.14
2016-02-23T05:24:01.943Z,987.1
2016-02-23T05:25:01.931Z,987.12
2016-02-23T05:26:01.933Z,987.17
2016-02-23T05:27:01.920Z,987.16
2016-02-23T05:28:01.922Z,987.19
2016-02-23T05:29:01.925Z,987.19
2016-02-23T05:30:01.912Z,987.21
2016-02-23T05:31:01.915Z,987.16
2016-02-23T05:32:01.902Z,987.17
2016-02-23T05:33:01.889Z,987.15
2016-02-23T05:34:01.892Z,987.17
2016-02-23T05:35:01.894Z,987.18
2016-02-23T05:36:01.882Z,987.15
2016-02-23T05:37:01.885Z,987.16
2016-02-23T05:38:01.888Z,987.2
2016-02-23T05:39:01.874Z,987.17
2016-02-23T05:40:01.861Z,987.16
2016-02-23T05:41:01.863Z,987.15
2016-02-23T05:42:01.867Z,987.11
2016-02-23T05:43:01.854Z,987.11
2016-02-23T05:44:01.857Z,987.1
2016-02-23T05:45:01.843Z,987.12
2016-02-23T05:46:01.846Z,987.15
2016-02-23T05:47:01.833Z,987.16
2016-02-23T05:48:01.835Z,987.17
2016-02-23T05:49:01.823Z,987.15
2016-02-23T05:50:01.826Z,987.16
2016-02-23T05:51:02.218Z,987.16
2016-02-23T05:52:01.816Z,987.19
2016-02-23T05:53:01.818Z,987.21
2016-02-23T05:54:01.805Z,987.22
2016-02-23T05:55:01.808Z,987.2
2016-02-23T05:56:01.795Z,987.19
2016-02-23T05:57:01.797Z,987.18
2016-02-23T05:58:01.800Z,987.2
2016-02-23T05:59:01.787Z,987.22
2016-02-23T06:00:01.774Z,987.22
2016-02-23T06:01:01.778Z,987.21
2016-02-23T06:02:01.780Z,987.25
2016-02-23T06:03:01.766Z,987.22
2016-02-23T06:04:01.753Z,987.26
2016-02-23T06:05:01.756Z,987.25
2016-02-23T06:06:01.759Z,987.21
2016-02-23T06:07:01.746Z,987.22
2016-02-23T06:08:01.749Z,987.24
2016-02-23T06:09:01.736Z,987.21
2016-02-23T06:10:01.739Z,987.23
2016-02-23T06:11:01.726Z,987.22
2016-02-23T06:12:01.729Z,987.28
2016-02-23T06:13:01.732Z,987.25
2016-02-23T06:14:01.718Z,987.27
2016-02-23T06:15:01.721Z,987.29
2016-02-23T06:16:01.708Z,987.26
2016-02-23T06:17:01.710Z,987.26
2016-02-23T06:18:01.699Z,987.24
2016-02-23T06:19:01.701Z,987.25
2016-02-23T06:20:01.704Z,987.31
2016-02-23T06:21:01.690Z,987.31
2016-02-23T06:22:01.677Z,987.33
2016-02-23T06:23:01.679Z,987.31
2016-02-23T06:24:01.667Z,987.31
2016-02-23T06:25:01.685Z,987.33
2016-02-23T06:26:01.672Z,987.36
2016-02-23T06:27:01.660Z,987.35
2016-02-23T06:28:01.662Z,987.38
2016-02-23T06:29:01.650Z,987.35
2016-02-23T06:30:01.652Z,987.38
2016-02-23T06:31:01.639Z,987.39
2016-02-23T06:32:01.642Z,987.35
2016-02-23T06:33:01.628Z,987.38
2016-02-23T06:34:01.631Z,987.43
2016-02-23T06:35:01.634Z,987.43
2016-02-23T06:36:01.622Z,987.43
2016-02-23T06:37:01.625Z,987.44
2016-02-23T06:38:01.611Z,987.43
2016-02-23T06:39:01.613Z,987.48
2016-02-23T06:40:01.600Z,987.49
2016-02-23T06:41:01.603Z,987.52
2016-02-23T06:42:01.606Z,987.48
2016-02-23T06:43:01.593Z,987.47
2016-02-23T06:44:01.596Z,987.53
2016-02-23T06:45:01.583Z,987.53
2016-02-23T06:46:01.585Z,987.55
2016-02-23T06:47:01.573Z,987.55
2016-02-23T06:48:01.576Z,987.53
2016-02-23T06:49:01.578Z,987.52
2016-02-23T06:50:01.565Z,987.55
2016-02-23T06:51:01.568Z,987.53
2016-02-23T06:52:01.554Z,987.55
2016-02-23T06:53:01.557Z,987.57
2016-02-23T06:54:01.545Z,987.59
2016-02-23T06:55:01.547Z,987.6
2016-02-23T06:56:01.551Z,987.63
2016-02-23T06:57:01.537Z,987.71
2016-02-23T06:58:01.539Z,987.69
2016-02-23T06:59:01.527Z,987.73
2016-02-23T07:00:01.529Z,987.73
2016-02-23T07:01:01.516Z,987.68
2016-02-23T07:02:01.519Z,987.74
2016-02-23T07:03:01.522Z,987.69
2016-02-23T07:04:01.509Z,987.69
2016-02-23T07:05:01.512Z,987.72
2016-02-23T07:06:01.499Z,987.75
2016-02-23T07:07:01.502Z,987.75
2016-02-23T07:08:01.488Z,987.73
2016-02-23T07:09:01.492Z,987.7
2016-02-23T07:10:01.478Z,987.73
2016-02-23T07:11:01.480Z,987.72
2016-02-23T07:12:01.468Z,987.76
2016-02-23T07:13:01.471Z,987.78
2016-02-23T07:14:01.474Z,987.77
2016-02-23T07:15:01.460Z,987.79
2016-02-23T07:16:01.463Z,987.78
2016-02-23T07:17:01.450Z,987.83
2016-02-23T07:18:01.452Z,987.81
2016-02-23T07:19:01.455Z,987.86
2016-02-23T07:20:01.443Z,987.82
2016-02-23T07:21:01.445Z,987.87
2016-02-23T07:22:01.433Z,987.82
2016-02-23T07:23:01.435Z,987.84
2016-02-23T07:24:01.422Z,987.81
2016-02-23T07:25:01.425Z,987.86
2016-02-23T07:26:01.412Z,987.87
2016-02-23T07:27:01.414Z,987.89
2016-02-23T07:28:01.401Z,987.89
2016-02-23T07:29:01.404Z,987.88
2016-02-23T07:30:01.407Z,987.85
2016-02-23T07:31:01.395Z,987.88
2016-02-23T07:32:01.398Z,987.87
2016-02-23T07:33:01.384Z,987.82
2016-02-23T07:34:01.386Z,987.84
2016-02-23T07:35:01.374Z,987.78
2016-02-23T07:36:01.376Z,987.78
2016-02-23T07:37:01.379Z,987.81
2016-02-23T07:38:01.366Z,987.8
2016-02-23T07:39:01.369Z,987.85
2016-02-23T07:40:01.356Z,987.84
2016-02-23T07:41:01.359Z,987.81
2016-02-23T07:42:01.346Z,987.81
2016-02-23T07:43:01.349Z,987.74
2016-02-23T07:44:01.336Z,987.77
2016-02-23T07:45:01.338Z,987.79
2016-02-23T07:46:01.340Z,987.79
2016-02-23T07:47:01.327Z,987.83
2016-02-23T07:48:01.363Z,987.86
2016-02-23T07:49:01.318Z,987.87
2016-02-23T07:50:01.321Z,987.86
2016-02-23T07:51:01.323Z,987.86
2016-02-23T07:52:01.310Z,987.9
2016-02-23T07:53:01.313Z,987.9
2016-02-23T07:54:01.299Z,987.9
2016-02-23T07:55:01.302Z,987.91
2016-02-23T07:56:01.305Z,987.95
2016-02-23T07:57:01.293Z,987.96
2016-02-23T07:58:01.295Z,987.94
2016-02-23T07:59:01.282Z,988.01
2016-02-23T08:00:01.285Z,987.98
2016-02-23T08:01:01.272Z,988.02
2016-02-23T08:02:01.275Z,987.99
2016-02-23T08:03:01.278Z,987.99
2016-02-23T08:04:01.264Z,988
2016-02-23T08:05:01.266Z,988.04
2016-02-23T08:06:01.269Z,988.02
2016-02-23T08:07:01.256Z,988.01
2016-02-23T08:08:01.259Z,988.06
2016-02-23T08:09:01.247Z,988.06
2016-02-23T08:10:01.249Z,988.01
2016-02-23T08:11:01.252Z,988.04
2016-02-23T08:12:01.239Z,988.03
2016-02-23T08:13:01.241Z,988.04
2016-02-23T08:14:01.447Z,988.03
2016-02-23T08:15:01.230Z,988.06
2016-02-23T08:16:01.233Z,988.06
2016-02-23T08:17:01.236Z,988.09
2016-02-23T08:18:01.224Z,988.08
2016-02-23T08:19:01.227Z,988.02
2016-02-23T08:20:01.213Z,988.04
2016-02-23T08:21:01.216Z,988.05
2016-02-23T08:22:01.204Z,988.02
2016-02-23T08:23:01.206Z,988.02
2016-02-23T08:24:01.209Z,987.99
2016-02-23T08:25:01.196Z,988
2016-02-23T08:26:01.198Z,988.03
2016-02-23T08:27:01.217Z,988.03
2016-02-23T08:28:01.187Z,988.01
2016-02-23T08:29:01.191Z,987.99
2016-02-23T08:30:01.178Z,988.03
2016-02-23T08:31:01.196Z,987.99
2016-02-23T08:32:01.183Z,988.04
2016-02-23T08:33:01.171Z,988.05
2016-02-23T08:34:01.173Z,988.07
2016-02-23T08:35:01.175Z,988.06
2016-02-23T08:36:01.163Z,988.08
2016-02-23T08:37:01.165Z,988.11
2016-02-23T08:38:01.153Z,988.16
2016-02-23T08:39:01.155Z,988.14
2016-02-23T08:40:01.142Z,988.15
2016-02-23T08:41:01.145Z,988.16
2016-02-23T08:42:01.148Z,988.16
2016-02-23T08:43:01.150Z,988.19
2016-02-23T08:44:01.153Z,988.24
2016-02-23T08:45:01.141Z,988.21
2016-02-23T08:46:01.127Z,988.23
2016-02-23T08:47:01.130Z,988.25
2016-02-23T08:48:01.133Z,988.24
2016-02-23T08:49:01.135Z,988.23
2016-02-23T08:50:01.122Z,988.25
2016-02-23T08:51:01.124Z,988.22
2016-02-23T08:52:01.112Z,988.2
2016-02-23T08:53:01.115Z,988.18
2016-02-23T08:54:01.102Z,988.22
2016-02-23T08:55:01.104Z,988.23
2016-02-23T08:56:01.107Z,988.23
2016-02-23T08:57:01.094Z,988.16
2016-02-23T08:58:01.096Z,988.25
2016-02-23T08:59:01.115Z,988.21
2016-02-23T09:00:01.087Z,988.25
2016-02-23T09:01:01.094Z,988.22
2016-02-23T09:02:01.081Z,988.23
2016-02-23T09:03:01.084Z,988.25
2016-02-23T09:04:01.071Z,988.22
2016-02-23T09:05:01.078Z,988.18
2016-02-23T09:06:01.066Z,988.15
2016-02-23T09:07:01.069Z,988.14
2016-02-23T09:08:01.072Z,988.15
2016-02-23T09:09:01.058Z,988.19
2016-02-23T09:10:01.061Z,988.2
2016-02-23T09:11:01.064Z,988.15
2016-02-23T09:12:01.051Z,988.13
2016-02-23T09:13:01.053Z,988.12
2016-02-23T09:14:01.056Z,988.16
2016-02-23T09:15:01.044Z,988.11
2016-02-23T09:16:01.046Z,988.14
2016-02-23T09:17:01.049Z,988.1
2016-02-23T09:18:01.036Z,988.16
2016-02-23T09:19:01.038Z,988.15
2016-02-23T09:20:01.041Z,988.12
2016-02-23T09:21:01.029Z,988.17
2016-02-23T09:22:01.031Z,988.13
2016-02-23T09:23:01.018Z,988.14
2016-02-23T09:24:01.021Z,988.2
2016-02-23T09:25:01.024Z,988.22
2016-02-23T09:26:01.010Z,988.25
2016-02-23T09:27:01.029Z,988.24
2016-02-23T09:28:01.026Z,988.24
2016-02-23T09:29:00.985Z,988.25
2016-02-23T09:30:00.975Z,988.33
2016-02-23T09:31:00.965Z,988.33
2016-02-23T09:32:00.955Z,988.32
2016-02-23T09:33:00.933Z,988.32
2016-02-23T09:34:00.931Z,988.31
2016-02-23T09:35:00.913Z,988.27
2016-02-23T09:36:00.910Z,988.31
2016-02-23T09:37:00.909Z,988.26
2016-02-23T09:38:00.893Z,988.27
2016-02-23T09:39:00.894Z,988.31
2016-02-23T09:40:00.895Z,988.39
2016-02-23T09:41:00.895Z,988.4
2016-02-23T09:42:00.879Z,988.33
2016-02-23T09:43:00.881Z,988.32
2016-02-23T09:44:00.882Z,988.33
2016-02-23T09:45:00.869Z,988.34
2016-02-23T09:46:00.872Z,988.32
2016-02-23T09:47:00.858Z,988.32
2016-02-23T09:48:00.860Z,988.38
2016-02-23T09:49:00.862Z,988.36
2016-02-23T09:50:00.849Z,988.39
2016-02-23T09:51:00.851Z,988.4
2016-02-23T09:52:00.869Z,988.36
2016-02-23T09:53:00.856Z,988.34
2016-02-23T09:54:00.843Z,988.35
2016-02-23T09:55:00.924Z,988.4
2016-02-23T09:56:00.849Z,988.34
2016-02-23T09:57:00.835Z,988.37
2016-02-23T09:58:00.838Z,988.37
2016-02-23T09:59:00.841Z,988.32
2016-02-23T10:00:00.843Z,988.37
2016-02-23T10:01:00.909Z,988.37
2016-02-23T10:02:00.833Z,988.32
2016-02-23T10:03:00.899Z,988.33
2016-02-23T10:04:00.823Z,988.34
2016-02-23T10:05:00.826Z,988.35
2016-02-23T10:06:00.844Z,988.38
2016-02-23T10:07:00.831Z,988.29
2016-02-23T10:08:00.818Z,988.33
2016-02-23T10:09:00.821Z,988.34
2016-02-23T10:10:00.823Z,988.36
2016-02-23T10:11:00.826Z,988.3
2016-02-23T10:12:00.829Z,988.34
2016-02-23T10:13:00.816Z,988.33
2016-02-23T10:14:00.850Z,988.33
2016-02-23T10:15:00.853Z,988.32
2016-02-23T10:16:01.434Z,988.35
2016-02-23T10:17:00.811Z,988.4
2016-02-23T10:18:00.814Z,988.44
2016-02-23T10:19:00.801Z,988.46
2016-02-23T10:20:00.881Z,988.41
2016-02-23T10:21:00.916Z,988.43
2016-02-23T10:22:00.808Z,988.47
2016-02-23T10:23:00.797Z,988.47
2016-02-23T10:24:00.799Z,988.47
2016-02-23T10:25:00.942Z,988.44
2016-02-23T10:26:00.804Z,988.45
2016-02-23T10:27:00.791Z,988.4
2016-02-23T10:28:00.794Z,988.37
2016-02-23T10:29:00.796Z,988.39
2016-02-23T10:30:00.799Z,988.43
2016-02-23T10:31:00.849Z,988.48
2016-02-23T10:32:00.867Z,988.49
2016-02-23T10:33:00.791Z,988.49
2016-02-23T10:34:00.779Z,988.58
2016-02-23T10:35:00.782Z,988.64
2016-02-23T10:36:00.862Z,988.58
2016-02-23T10:37:00.787Z,988.59
2016-02-23T10:38:00.774Z,988.64
2016-02-23T10:39:00.777Z,988.65
2016-02-23T10:40:00.842Z,988.67
2016-02-23T10:41:00.860Z,988.68
2016-02-23T10:42:00.770Z,988.65
2016-02-23T10:43:00.834Z,988.69
2016-02-23T10:44:00.775Z,988.65
2016-02-23T10:45:00.777Z,988.61
2016-02-23T10:46:00.780Z,988.57
2016-02-23T10:47:00.767Z,988.59
2016-02-23T10:48:00.770Z,988.56
2016-02-23T10:49:00.756Z,988.6
2016-02-23T10:50:00.822Z,988.66
2016-02-23T10:51:00.762Z,988.56
2016-02-23T10:52:00.827Z,988.51
2016-02-23T10:53:00.814Z,988.48
2016-02-23T10:54:00.755Z,988.61
2016-02-23T10:55:00.819Z,988.55
2016-02-23T10:56:00.807Z,988.53
2016-02-23T10:57:00.763Z,988.55
2016-02-23T10:58:00.750Z,988.5
2016-02-23T10:59:00.816Z,988.42
2016-02-23T11:00:00.833Z,988.51
2016-02-23T11:01:00.741Z,988.57
2016-02-23T11:02:00.745Z,988.59
2016-02-23T11:03:00.747Z,988.53
2016-02-23T11:04:00.765Z,988.51
2016-02-23T11:05:00.737Z,988.45
2016-02-23T11:06:00.740Z,988.45
2016-02-23T11:07:00.743Z,988.44
2016-02-23T11:08:00.746Z,988.4
2016-02-23T11:09:00.763Z,988.39
2016-02-23T11:10:00.735Z,988.36
2016-02-23T11:11:00.832Z,988.32
2016-02-23T11:12:00.741Z,988.41
2016-02-23T11:13:00.728Z,988.33
2016-02-23T11:14:00.731Z,988.3
2016-02-23T11:15:00.733Z,988.32
2016-02-23T11:16:00.829Z,988.38
2016-02-23T11:17:00.738Z,988.36
2016-02-23T11:18:00.725Z,988.33
2016-02-23T11:19:00.728Z,988.3
2016-02-23T11:20:00.747Z,988.33
2016-02-23T11:21:00.717Z,988.44
2016-02-23T11:22:00.736Z,988.39
2016-02-23T11:23:00.723Z,988.37
2016-02-23T11:24:00.835Z,988.36
2016-02-23T11:25:00.791Z,988.34
2016-02-23T11:26:00.794Z,988.35
2016-02-23T11:27:00.797Z,988.39
2016-02-23T11:28:00.721Z,988.32
2016-02-23T11:29:00.724Z,988.27
2016-02-23T11:30:00.727Z,988.22
2016-02-23T11:32:00.733Z,988.17
2016-02-23T11:33:00.719Z,988.2
2016-02-23T11:34:00.738Z,988.23
2016-02-23T11:35:00.802Z,988.19
2016-02-23T11:36:00.790Z,988.26
2016-02-23T11:37:00.729Z,988.28
2016-02-23T11:38:00.717Z,988.3
2016-02-23T11:39:00.719Z,988.16
2016-02-23T11:40:00.785Z,988.23
2016-02-23T11:41:00.787Z,988.23
2016-02-23T11:42:00.790Z,988.22
2016-02-23T11:43:00.714Z,988.16
2016-02-23T11:44:00.717Z,988.06
2016-02-23T11:45:00.752Z,988.07
2016-02-23T11:46:00.785Z,988.12
2016-02-23T11:47:00.788Z,988.02
2016-02-23T11:48:00.712Z,988.06
2016-02-23T11:49:00.793Z,988.02
2016-02-23T11:50:00.780Z,988.01
2016-02-23T11:51:00.783Z,988.03
2016-02-23T11:52:00.785Z,987.97
2016-02-23T11:53:00.794Z,987.97
2016-02-23T11:54:00.715Z,988.03
2016-02-23T11:55:00.811Z,988.05
2016-02-23T11:56:00.817Z,987.99
2016-02-23T11:57:00.795Z,988.04
2016-02-23T11:58:00.704Z,988.06
2016-02-23T11:59:00.707Z,988.07
2016-02-23T12:00:00.709Z,988.06
2016-02-23T12:01:00.743Z,987.95
2016-02-23T12:02:00.715Z,987.93
2016-02-23T12:03:00.702Z,987.98
2016-02-23T12:04:00.704Z,988.04
2016-02-23T12:05:00.707Z,988.14
2016-02-23T12:06:00.809Z,988.07
2016-02-23T12:07:00.700Z,988.05
2016-02-23T12:08:00.702Z,988.08
2016-02-23T12:09:00.705Z,988
2016-02-23T12:10:00.722Z,987.98
2016-02-23T12:11:00.710Z,987.93
2016-02-23T12:12:00.696Z,987.87
2016-02-23T12:13:00.699Z,987.82
2016-02-23T12:14:00.718Z,987.73
2016-02-23T12:15:00.704Z,987.69
2016-02-23T12:16:00.691Z,987.72
2016-02-23T12:17:00.694Z,987.69
2016-02-23T12:18:00.696Z,987.67
2016-02-23T12:19:00.779Z,987.66
2016-02-23T12:20:00.766Z,987.66
2016-02-23T12:21:00.705Z,987.63
2016-02-23T12:22:00.771Z,987.6
2016-02-23T12:23:00.804Z,987.56
2016-02-23T12:24:00.698Z,987.56
2016-02-23T12:25:00.762Z,987.59
2016-02-23T12:26:00.704Z,987.58
2016-02-23T12:27:00.707Z,987.59
2016-02-23T12:28:00.693Z,987.54
2016-02-23T12:29:00.696Z,987.56
2016-02-23T12:30:00.698Z,987.59
2016-02-23T12:31:00.701Z,987.65